Main page
METAR-TAF:

METAR-TAF

Airports :

Kassel Airport

Kassel, Germany

latitude: 51-24N, longitude: 009-23E, elevation: 277 m

Current weather observation

The report was made 26 minutes ago, at 16:20 UTC
Wind 6 kt from the West/Northwest, varying between Southwest and North/Northwest
Temperature 27°C
Humidity 42%
Pressure 1018 hPa
Visibility 10 km or more
no clouds below 1500 m and no cumulonimbus

METAR: EDVK 201620Z 30006KT 230V340 CAVOK 27/13 Q1018

Time: 18:46 (16:46 UTC)

Forecast

The report was made 2 hours and 46 minutes ago, at 14:00 UTC
Forecast valid from 20 at 15 UTC to 20 at 24 UTC
Wind 7 kt from the West/Northwest
Visibility 10 km or more
Scattered clouds at a height of 4500 ft
Becoming
from 20 at 19 UTC to 20 at 21 UTC
Wind 3 kt from the Southwest

TAF: EDVK 201400Z 2015/2024 29007KT 9999 SCT045 BECMG 2019/2021 23003KT

Weather observations and forecasts of more than 4000 airports (METAR and TAF reports).

The available stations are represented by yellow and red dots on the map.

Hover mouse over dot to see the name of the station.

Then click to see weather observations and forecasts.

To change the map : click on the green buttons with a black cross to zoom in, on the green button with a dash to zoom out, or on the green arrows for adjacent maps.


METAR-TAF: